Terminal Aerodrome Forecast
Issued by NWS Cleveland, OH

Home | Current Version | Previous Version | Text Only | Print | Product List | Glossary Off
Versions: 1 2 3 4 5 6 7 8 9 10 11 12 13 14 15 16 17 18 19 20 21 22 23 24 25 26 27 28 29 30 31 32 33

000
FTUS41 KCLE 210900 CCA
TAFCLE
TAF COR
KCLE 210902Z 2108/2212 21010KT P6SM BKN050
      TEMPO 2108/2110 6SM -TSRA OVC040CB
     FM211000 21010KT P6SM BKN050
      TEMPO 2110/2112 6SM -SHRA
     FM211200 23012KT P6SM BKN020 OVC040
     FM211500 26012G20KT P6SM OVC025
     FM212000 30015G22KT P6SM VCTS BKN025CB
     FM220100 33012KT P6SM VCSH BKN030=

USA.gov is the U.S. government's official web portal to all federal, state and local government web resources and services.